createdAt,value
2022-12-16T00:01:51.156Z,-2.36
2022-12-16T00:04:24.247Z,-2.31
2022-12-16T00:06:56.539Z,-2.24
2022-12-16T00:09:29.087Z,-2.20
2022-12-16T00:12:01.294Z,-2.21
2022-12-16T00:14:33.739Z,-2.18
2022-12-16T00:17:05.882Z,-2.16
2022-12-16T00:19:38.075Z,-2.16
2022-12-16T00:22:10.295Z,-2.16
2022-12-16T00:24:42.515Z,-2.19
2022-12-16T00:27:14.581Z,-2.20
2022-12-16T00:29:46.749Z,-2.23
2022-12-16T00:32:18.922Z,-2.27
2022-12-16T00:34:51.086Z,-2.33
2022-12-16T00:37:24.073Z,-2.38
2022-12-16T00:39:56.265Z,-2.41
2022-12-16T00:42:28.409Z,-2.44
2022-12-16T00:45:00.656Z,-2.49
2022-12-16T00:47:33.134Z,-2.53
2022-12-16T00:50:05.988Z,-2.56
2022-12-16T00:52:38.158Z,-2.58
2022-12-16T00:55:12.118Z,-2.59
2022-12-16T00:57:44.544Z,-2.59
2022-12-16T01:00:19.426Z,-2.57
2022-12-16T01:02:53.654Z,-2.48
2022-12-16T01:05:27.122Z,-2.43
2022-12-16T01:07:59.693Z,-2.39
2022-12-16T01:10:31.862Z,-2.32
2022-12-16T01:13:04.027Z,-2.26
2022-12-16T01:15:36.248Z,-2.21
2022-12-16T01:18:08.467Z,-2.22
2022-12-16T01:20:40.638Z,-2.24
2022-12-16T01:23:12.906Z,-2.28
2022-12-16T01:25:45.022Z,-2.29
2022-12-16T01:28:17.251Z,-2.27
2022-12-16T01:30:49.514Z,-2.27
2022-12-16T01:33:21.630Z,-2.31
2022-12-16T01:36:01.297Z,-2.32
2022-12-16T01:38:34.157Z,-2.35
2022-12-16T01:41:07.073Z,-2.39
2022-12-16T01:43:41.158Z,-2.43
2022-12-16T01:46:21.600Z,-2.45
2022-12-16T01:48:59.728Z,-2.50
2022-12-16T01:51:36.762Z,-2.54
2022-12-16T01:54:13.728Z,-2.56
2022-12-16T01:56:52.950Z,-2.58
2022-12-16T01:59:26.832Z,-2.60
2022-12-16T02:02:00.732Z,-2.65
2022-12-16T02:04:33.115Z,-2.64
2022-12-16T02:07:05.338Z,-2.55
2022-12-16T02:09:37.477Z,-2.50
2022-12-16T02:12:26.771Z,-2.48
2022-12-16T02:15:24.718Z,-2.47
2022-12-16T02:18:05.770Z,-2.42
2022-12-16T02:21:13.578Z,-2.36
2022-12-16T02:24:29.406Z,-2.36
2022-12-16T02:27:36.171Z,-2.38
2022-12-16T02:30:28.200Z,-2.34
2022-12-16T02:33:14.694Z,-2.34
2022-12-16T02:35:53.893Z,-2.36
2022-12-16T02:38:39.858Z,-2.39
2022-12-16T02:41:18.939Z,-2.43
2022-12-16T02:43:58.302Z,-2.45
2022-12-16T02:46:34.164Z,-2.45
2022-12-16T02:49:10.753Z,-2.48
2022-12-16T02:51:43.560Z,-2.53
2022-12-16T02:54:16.317Z,-2.55
2022-12-16T02:56:59.802Z,-2.57
2022-12-16T02:59:42.005Z,-2.59
2022-12-16T03:02:20.882Z,-2.62
2022-12-16T03:04:57.682Z,-2.63
2022-12-16T03:07:33.308Z,-2.55
2022-12-16T03:10:10.190Z,-2.51
2022-12-16T03:12:45.144Z,-2.46
2022-12-16T03:15:20.435Z,-2.38
2022-12-16T03:17:54.970Z,-2.30
2022-12-16T03:20:32.554Z,-2.22
2022-12-16T03:23:08.025Z,-2.21
2022-12-16T03:25:44.345Z,-2.19
2022-12-16T03:28:29.956Z,-2.18
2022-12-16T03:31:09.799Z,-2.20
2022-12-16T03:33:49.262Z,-2.21
2022-12-16T03:36:26.345Z,-2.23
2022-12-16T03:39:00.535Z,-2.24
2022-12-16T03:41:33.905Z,-2.26
2022-12-16T03:44:06.407Z,-2.31
2022-12-16T03:46:38.687Z,-2.38
2022-12-16T03:49:10.903Z,-2.43
2022-12-16T03:51:43.142Z,-2.47
2022-12-16T03:54:15.464Z,-2.49
2022-12-16T03:56:48.660Z,-2.54
2022-12-16T03:59:21.364Z,-2.59
2022-12-16T04:01:53.863Z,-2.63
2022-12-16T04:04:26.826Z,-2.66
2022-12-16T04:07:16.991Z,-2.69
2022-12-16T04:09:50.051Z,-2.72
2022-12-16T04:12:40.706Z,-2.76
2022-12-16T04:15:33.849Z,-2.79
2022-12-16T04:18:23.319Z,-2.82
2022-12-16T04:21:15.287Z,-2.88
2022-12-16T04:24:10.276Z,-2.90
2022-12-16T04:26:56.552Z,-2.83
2022-12-16T04:29:28.770Z,-2.78
2022-12-16T04:32:01.448Z,-2.73
2022-12-16T04:34:33.565Z,-2.70
2022-12-16T04:37:38.501Z,-2.66
2022-12-16T04:40:30.309Z,-2.62
2022-12-16T04:43:25.565Z,-2.62
2022-12-16T04:46:15.614Z,-2.58
2022-12-16T04:49:13.806Z,-2.57
2022-12-16T04:52:03.766Z,-2.59
2022-12-16T04:54:53.649Z,-2.61
2022-12-16T04:57:43.713Z,-2.62
2022-12-16T05:00:34.375Z,-2.64
2022-12-16T05:03:32.935Z,-2.69
2022-12-16T05:06:23.063Z,-2.74
2022-12-16T05:09:12.797Z,-2.79
2022-12-16T05:12:02.679Z,-2.82
2022-12-16T05:14:52.412Z,-2.85
2022-12-16T05:17:42.498Z,-2.88
2022-12-16T05:20:32.333Z,-2.91
2022-12-16T05:23:22.062Z,-2.92
2022-12-16T05:26:11.868Z,-2.89
2022-12-16T05:29:01.834Z,-2.81
2022-12-16T05:31:51.720Z,-2.75
2022-12-16T05:34:41.524Z,-2.69
2022-12-16T05:37:31.377Z,-2.64
2022-12-16T05:40:21.131Z,-2.58
2022-12-16T05:43:16.364Z,-2.54
2022-12-16T05:46:06.869Z,-2.56
2022-12-16T05:48:56.953Z,-2.55
2022-12-16T05:51:46.503Z,-2.58
2022-12-16T05:54:36.014Z,-2.59
2022-12-16T05:57:25.492Z,-2.62
2022-12-16T06:00:15.282Z,-2.64
2022-12-16T06:03:05.297Z,-2.70
2022-12-16T06:05:55.640Z,-2.72
2022-12-16T06:08:45.748Z,-2.72
2022-12-16T06:11:35.382Z,-2.72
2022-12-16T06:14:25.035Z,-2.76
2022-12-16T06:17:14.739Z,-2.80
2022-12-16T06:20:06.594Z,-2.81
2022-12-16T06:22:56.658Z,-2.84
2022-12-16T06:25:46.657Z,-2.88
2022-12-16T06:28:36.757Z,-2.86
2022-12-16T06:31:27.053Z,-2.76
2022-12-16T06:34:16.782Z,-2.72
2022-12-16T06:37:06.793Z,-2.65
2022-12-16T06:39:56.415Z,-2.58
2022-12-16T06:42:46.381Z,-2.52
2022-12-16T06:45:36.503Z,-2.47
2022-12-16T06:48:27.223Z,-2.47
2022-12-16T06:51:17.133Z,-2.46
2022-12-16T06:54:06.860Z,-2.44
2022-12-16T06:56:56.566Z,-2.44
2022-12-16T06:59:46.270Z,-2.47
2022-12-16T07:02:36.031Z,-2.50
2022-12-16T07:05:26.444Z,-2.53
2022-12-16T07:08:16.105Z,-2.56
2022-12-16T07:11:16.133Z,-2.61
2022-12-16T07:14:06.900Z,-2.64
2022-12-16T07:16:58.809Z,-2.66
2022-12-16T07:19:54.093Z,-2.70
2022-12-16T07:22:44.308Z,-2.76
2022-12-16T07:25:33.885Z,-2.76
2022-12-16T07:28:23.541Z,-2.77
2022-12-16T07:31:13.293Z,-2.77
2022-12-16T07:34:03.331Z,-2.66
2022-12-16T07:36:53.163Z,-2.62
2022-12-16T07:39:42.854Z,-2.60
2022-12-16T07:42:43.913Z,-2.56
2022-12-16T07:45:33.520Z,-2.50
2022-12-16T07:48:23.603Z,-2.45
2022-12-16T07:51:13.334Z,-2.46
2022-12-16T07:54:03.348Z,-2.44
2022-12-16T07:56:53.070Z,-2.45
2022-12-16T07:59:48.488Z,-2.51
2022-12-16T08:02:38.821Z,-2.59
2022-12-16T08:05:30.765Z,-2.63
2022-12-16T08:08:20.750Z,-2.68
2022-12-16T08:11:10.892Z,-2.74
2022-12-16T08:14:00.697Z,-2.74
2022-12-16T08:16:50.411Z,-2.79
2022-12-16T08:19:41.133Z,-2.86
2022-12-16T08:22:29.914Z,-2.91
2022-12-16T08:25:19.875Z,-2.95
2022-12-16T08:28:14.821Z,-3.00
2022-12-16T08:31:08.030Z,-3.00
2022-12-16T08:33:58.643Z,-2.92
2022-12-16T08:36:48.264Z,-2.90
2022-12-16T08:39:38.005Z,-2.82
2022-12-16T08:42:27.804Z,-2.75
2022-12-16T08:45:17.918Z,-2.65
2022-12-16T08:48:07.955Z,-2.57
2022-12-16T08:51:09.612Z,-2.54
2022-12-16T08:54:07.843Z,-2.51
2022-12-16T08:56:57.703Z,-2.50
2022-12-16T08:59:47.482Z,-2.52
2022-12-16T09:02:37.439Z,-2.57
2022-12-16T09:05:29.041Z,-2.63
2022-12-16T09:08:20.792Z,-2.67
2022-12-16T09:11:10.651Z,-2.66
2022-12-16T09:14:00.330Z,-2.69
2022-12-16T09:16:50.138Z,-2.73
2022-12-16T09:19:40.175Z,-2.77
2022-12-16T09:22:29.956Z,-2.84
2022-12-16T09:25:19.673Z,-2.90
2022-12-16T09:28:10.800Z,-2.98
2022-12-16T09:31:00.635Z,-3.02
2022-12-16T09:33:50.497Z,-3.00
2022-12-16T09:36:40.318Z,-2.88
2022-12-16T09:39:30.177Z,-2.81
2022-12-16T09:42:26.001Z,-2.76
2022-12-16T09:45:15.834Z,-2.69
2022-12-16T09:48:15.804Z,-2.63
2022-12-16T09:51:06.301Z,-2.57
2022-12-16T09:53:57.951Z,-2.55
2022-12-16T09:56:50.422Z,-2.53
2022-12-16T09:59:45.580Z,-2.50
2022-12-16T10:02:37.659Z,-2.49
2022-12-16T10:05:33.690Z,-2.49
2022-12-16T10:08:29.053Z,-2.49
2022-12-16T10:11:26.287Z,-2.50
2022-12-16T10:14:24.591Z,-2.52
2022-12-16T10:17:22.180Z,-2.53
2022-12-16T10:20:32.260Z,-2.54
2022-12-16T10:23:32.214Z,-2.57
2022-12-16T10:26:27.113Z,-2.60
2022-12-16T10:29:23.953Z,-2.61
2022-12-16T10:32:12.685Z,-2.62
2022-12-16T10:35:03.212Z,-2.62
2022-12-16T10:37:55.551Z,-2.62
2022-12-16T10:40:49.317Z,-2.58
2022-12-16T10:43:47.760Z,-2.48
2022-12-16T10:46:43.973Z,-2.42
2022-12-16T10:49:35.317Z,-2.39
2022-12-16T10:52:25.862Z,-2.32
2022-12-16T10:55:22.759Z,-2.25
2022-12-16T10:58:35.488Z,-2.25
2022-12-16T11:01:41.569Z,-2.24
2022-12-16T11:04:55.912Z,-2.23
2022-12-16T11:07:53.025Z,-2.26
2022-12-16T11:10:50.485Z,-2.26
2022-12-16T11:13:47.079Z,-2.24
2022-12-16T11:16:38.170Z,-2.24
2022-12-16T11:19:39.258Z,-2.26
2022-12-16T11:22:34.263Z,-2.27
2022-12-16T11:25:37.048Z,-2.30
2022-12-16T11:28:33.154Z,-2.32
2022-12-16T11:31:26.940Z,-2.32
2022-12-16T11:34:19.448Z,-2.34
2022-12-16T11:37:11.200Z,-2.36
2022-12-16T11:40:03.978Z,-2.36
2022-12-16T11:42:54.685Z,-2.35
2022-12-16T11:45:46.254Z,-2.25
2022-12-16T11:48:52.496Z,-2.22
2022-12-16T11:51:43.992Z,-2.16
2022-12-16T11:54:41.148Z,-2.10
2022-12-16T11:57:38.557Z,-2.04
2022-12-16T12:00:37.042Z,-2.04
2022-12-16T12:03:31.394Z,-2.00
2022-12-16T12:06:26.972Z,-1.96
2022-12-16T12:09:23.153Z,-1.95
2022-12-16T12:12:18.102Z,-1.96
2022-12-16T12:15:11.807Z,-1.96
2022-12-16T12:18:06.884Z,-2.00
2022-12-16T12:21:05.552Z,-2.04
2022-12-16T12:24:08.593Z,-2.09
2022-12-16T12:27:09.996Z,-2.18
2022-12-16T12:30:16.018Z,-2.22
2022-12-16T12:33:12.290Z,-2.25
2022-12-16T12:36:08.933Z,-2.25
2022-12-16T12:39:09.208Z,-2.27
2022-12-16T12:42:14.993Z,-2.29
2022-12-16T12:45:17.343Z,-2.30
2022-12-16T12:48:13.246Z,-2.31
2022-12-16T12:51:05.172Z,-2.28
2022-12-16T12:54:03.557Z,-2.22
2022-12-16T12:57:03.448Z,-2.18
2022-12-16T13:00:06.133Z,-2.15
2022-12-16T13:03:05.500Z,-2.10
2022-12-16T13:05:58.393Z,-2.02
2022-12-16T13:09:04.155Z,-1.97
2022-12-16T13:11:54.422Z,-1.98
2022-12-16T13:15:12.902Z,-1.96
2022-12-16T13:18:38.757Z,-1.99
2022-12-16T13:21:59.274Z,-2.04
2022-12-16T13:25:08.363Z,-2.10
2022-12-16T13:28:14.311Z,-2.17
2022-12-16T13:31:25.300Z,-2.22
2022-12-16T13:34:25.882Z,-2.25
2022-12-16T13:37:25.759Z,-2.28
2022-12-16T13:40:25.568Z,-2.30
2022-12-16T13:43:20.551Z,-2.32
2022-12-16T13:46:34.052Z,-2.33
2022-12-16T13:52:50.948Z,-2.28
2022-12-16T13:55:46.293Z,-2.18
2022-12-16T13:58:49.874Z,-2.11
2022-12-16T14:01:48.546Z,-2.08
2022-12-16T14:04:44.630Z,-2.03
2022-12-16T14:07:37.074Z,-2.04
2022-12-16T14:10:41.809Z,-2.04
2022-12-16T14:13:38.447Z,-2.01
2022-12-16T14:16:35.047Z,-2.02
2022-12-16T14:19:41.025Z,-2.06
2022-12-16T14:22:48.010Z,-2.10
2022-12-16T14:25:40.967Z,-2.12
2022-12-16T14:28:42.112Z,-2.13
2022-12-16T14:31:38.040Z,-2.16
2022-12-16T14:34:34.835Z,-2.16
2022-12-16T14:37:33.706Z,-2.15
2022-12-16T14:40:36.772Z,-2.13
2022-12-16T14:43:33.551Z,-2.16
2022-12-16T14:46:24.083Z,-2.17
2022-12-16T14:49:15.000Z,-2.20
2022-12-16T14:52:07.237Z,-2.22
2022-12-16T14:54:58.963Z,-2.22
2022-12-16T14:57:50.050Z,-2.16
2022-12-16T15:00:41.805Z,-2.10
2022-12-16T15:03:48.834Z,-2.05
2022-12-16T15:06:45.390Z,-2.02
2022-12-16T15:09:43.018Z,-2.02
2022-12-16T15:12:34.595Z,-2.04
2022-12-16T15:15:32.054Z,-2.05
2022-12-16T15:18:22.910Z,-2.08
2022-12-16T15:21:14.201Z,-2.11
2022-12-16T15:24:05.266Z,-2.15
2022-12-16T15:27:10.351Z,-2.18
2022-12-16T15:30:01.634Z,-2.22
2022-12-16T15:32:53.702Z,-2.25
2022-12-16T15:35:50.883Z,-2.28
2022-12-16T15:38:47.757Z,-2.33
2022-12-16T15:41:42.938Z,-2.39
2022-12-16T15:44:37.789Z,-2.41
2022-12-16T15:47:44.211Z,-2.45
2022-12-16T15:50:35.614Z,-2.52
2022-12-16T15:53:49.416Z,-2.55
2022-12-16T15:56:47.296Z,-2.51
2022-12-16T15:59:48.929Z,-2.39
2022-12-16T16:02:42.265Z,-2.35
2022-12-16T16:05:37.317Z,-2.32
2022-12-16T16:08:28.975Z,-2.29
2022-12-16T16:11:18.858Z,-2.27
2022-12-16T16:14:13.987Z,-2.28
2022-12-16T16:17:04.191Z,-2.27
2022-12-16T16:19:55.140Z,-2.28
2022-12-16T16:22:48.657Z,-2.29
2022-12-16T16:25:38.310Z,-2.27
2022-12-16T16:28:28.913Z,-2.30
2022-12-16T16:31:18.824Z,-2.31
2022-12-16T16:34:09.114Z,-2.32
2022-12-16T16:36:59.048Z,-2.35
2022-12-16T16:39:48.934Z,-2.38
2022-12-16T16:42:38.818Z,-2.42
2022-12-16T16:45:46.057Z,-2.49
2022-12-16T16:48:37.095Z,-2.52
2022-12-16T16:51:27.184Z,-2.55
2022-12-16T16:54:17.243Z,-2.58
2022-12-16T16:57:07.002Z,-2.60
2022-12-16T16:59:56.810Z,-2.52
2022-12-16T17:02:46.985Z,-2.49
2022-12-16T17:05:37.700Z,-2.46
2022-12-16T17:08:27.532Z,-2.43
2022-12-16T17:11:17.304Z,-2.38
2022-12-16T17:14:07.173Z,-2.33
2022-12-16T17:17:02.097Z,-2.32
2022-12-16T17:19:52.212Z,-2.31
2022-12-16T17:22:41.993Z,-2.30
2022-12-16T17:25:31.979Z,-2.33
2022-12-16T17:28:21.992Z,-2.36
2022-12-16T17:31:11.936Z,-2.38
2022-12-16T17:34:01.698Z,-2.43
2022-12-16T17:36:51.540Z,-2.47
2022-12-16T17:39:41.294Z,-2.51
2022-12-16T17:42:31.025Z,-2.53
2022-12-16T17:45:20.787Z,-2.54
2022-12-16T17:48:15.811Z,-2.56
2022-12-16T17:51:05.821Z,-2.60
2022-12-16T17:54:00.424Z,-2.63
2022-12-16T17:56:51.912Z,-2.68
2022-12-16T17:59:41.744Z,-2.75
2022-12-16T18:02:34.379Z,-2.75
2022-12-16T18:05:24.635Z,-2.65
2022-12-16T18:08:14.672Z,-2.62
2022-12-16T18:11:04.606Z,-2.59
2022-12-16T18:13:54.337Z,-2.56
2022-12-16T18:16:44.231Z,-2.52
2022-12-16T18:19:35.195Z,-2.50
2022-12-16T18:22:27.242Z,-2.54
2022-12-16T18:25:17.430Z,-2.55
2022-12-16T18:28:07.416Z,-2.56
2022-12-16T18:30:58.222Z,-2.55
2022-12-16T18:34:02.927Z,-2.55
2022-12-16T18:36:52.709Z,-2.56
2022-12-16T18:39:42.464Z,-2.59
2022-12-16T18:42:32.502Z,-2.66
2022-12-16T18:45:22.206Z,-2.69
2022-12-16T18:48:12.115Z,-2.75
2022-12-16T18:51:01.870Z,-2.82
2022-12-16T18:53:51.676Z,-2.91
2022-12-16T18:56:41.486Z,-2.96
2022-12-16T18:59:31.217Z,-2.99
2022-12-16T19:02:21.120Z,-3.02
2022-12-16T19:05:11.111Z,-3.05
2022-12-16T19:08:01.153Z,-3.07
2022-12-16T19:10:51.260Z,-2.98
2022-12-16T19:13:41.120Z,-2.94
2022-12-16T19:16:31.301Z,-2.89
2022-12-16T19:19:21.714Z,-2.84
2022-12-16T19:22:11.464Z,-2.77
2022-12-16T19:25:01.268Z,-2.72
2022-12-16T19:28:05.872Z,-2.73
2022-12-16T19:30:56.423Z,-2.73
2022-12-16T19:33:46.329Z,-2.74
2022-12-16T19:36:36.392Z,-2.77
2022-12-16T19:39:26.637Z,-2.81
2022-12-16T19:42:16.444Z,-2.88
2022-12-16T19:45:06.300Z,-2.90
2022-12-16T19:47:55.979Z,-2.93
2022-12-16T19:50:46.348Z,-2.99
2022-12-16T19:53:36.130Z,-3.08
2022-12-16T19:56:26.832Z,-3.12
2022-12-16T19:59:16.638Z,-3.16
2022-12-16T20:02:06.817Z,-3.19
2022-12-16T20:04:57.150Z,-3.18
2022-12-16T20:07:47.032Z,-3.19
2022-12-16T20:10:36.204Z,-3.22
2022-12-16T20:13:30.410Z,-3.21
2022-12-16T20:16:24.465Z,-3.11
2022-12-16T20:19:14.709Z,-3.05
2022-12-16T20:25:14.731Z,-2.85
2022-12-16T20:28:04.608Z,-2.81
2022-12-16T20:30:56.281Z,-2.80
2022-12-16T20:33:46.693Z,-2.85
2022-12-16T20:36:36.947Z,-2.88
2022-12-16T20:39:28.495Z,-2.91
2022-12-16T20:42:18.505Z,-2.94
2022-12-16T20:45:08.262Z,-2.97
2022-12-16T20:47:59.323Z,-3.04
2022-12-16T20:50:48.904Z,-3.09
2022-12-16T20:53:39.223Z,-3.11
2022-12-16T20:56:29.661Z,-3.11
2022-12-16T20:59:20.930Z,-3.15
2022-12-16T21:02:31.730Z,-3.22
2022-12-16T21:05:21.008Z,-3.31
2022-12-16T21:08:10.780Z,-3.32
2022-12-16T21:11:00.510Z,-3.34
2022-12-16T21:13:50.507Z,-3.38
2022-12-16T21:16:40.560Z,-3.40
2022-12-16T21:19:41.809Z,-3.43
2022-12-16T21:22:32.028Z,-3.41
2022-12-16T21:28:33.195Z,-3.27
2022-12-16T21:31:23.361Z,-3.18
2022-12-16T21:34:14.783Z,-3.11
2022-12-16T21:37:04.485Z,-3.06
2022-12-16T21:39:54.137Z,-3.02
2022-12-16T21:45:50.852Z,-3.02
2022-12-16T21:48:41.435Z,-3.02
2022-12-16T21:51:30.843Z,-3.03
2022-12-16T21:54:21.042Z,-3.05
2022-12-16T21:57:11.129Z,-3.07
2022-12-16T22:00:00.969Z,-3.09
2022-12-16T22:02:50.718Z,-3.16
2022-12-16T22:05:41.445Z,-3.19
2022-12-16T22:08:31.304Z,-3.26
2022-12-16T22:11:29.126Z,-3.31
2022-12-16T22:14:27.531Z,-3.32
2022-12-16T22:17:31.796Z,-3.33
2022-12-16T22:20:21.611Z,-3.34
2022-12-16T22:23:07.589Z,-3.38
2022-12-16T22:25:57.563Z,-3.39
2022-12-16T22:28:47.906Z,-3.39
2022-12-16T22:31:37.976Z,-3.37
2022-12-16T22:34:28.031Z,-3.23
2022-12-16T22:37:18.031Z,-3.15
2022-12-16T22:40:22.469Z,-3.10
2022-12-16T22:43:12.505Z,-3.09
2022-12-16T22:46:02.357Z,-3.05
2022-12-16T22:48:52.691Z,-3.02
2022-12-16T22:51:46.151Z,-3.06
2022-12-16T22:54:36.225Z,-3.07
2022-12-16T22:57:26.072Z,-3.10
2022-12-16T23:00:15.865Z,-3.11
2022-12-16T23:03:05.843Z,-3.13
2022-12-16T23:05:55.952Z,-3.15
2022-12-16T23:08:46.578Z,-3.19
2022-12-16T23:11:41.740Z,-3.21
2022-12-16T23:14:31.568Z,-3.24
2022-12-16T23:17:21.375Z,-3.28
2022-12-16T23:20:11.131Z,-3.28
2022-12-16T23:23:01.168Z,-3.28
2022-12-16T23:25:50.949Z,-3.32
2022-12-16T23:28:40.960Z,-3.36
2022-12-16T23:31:31.200Z,-3.41
2022-12-16T23:34:21.240Z,-3.47
2022-12-16T23:37:11.457Z,-3.53
2022-12-16T23:40:01.164Z,-3.56
2022-12-16T23:42:50.915Z,-3.56
2022-12-16T23:45:45.639Z,-3.58
2022-12-16T23:48:35.420Z,-3.58
2022-12-16T23:51:25.661Z,-3.49
2022-12-16T23:54:15.417Z,-3.48
2022-12-16T23:57:05.326Z,-3.42
2022-12-16T23:59:55.138Z,-3.36
